sensor_id;sensor_type;location;lat;lon;timestamp;P1;durP1;ratioP1;P2;durP2;ratioP2
46731;SDS011;32477;51.474;5.696;2022-07-29T00:01:22;6.97;;;2.78;;
46731;SDS011;32477;51.474;5.696;2022-07-29T00:03:48;8.98;;;3.10;;
46731;SDS011;32477;51.474;5.696;2022-07-29T00:06:14;8.45;;;2.38;;
46731;SDS011;32477;51.474;5.696;2022-07-29T00:08:40;7.78;;;2.88;;
46731;SDS011;32477;51.474;5.696;2022-07-29T00:11:06;8.98;;;3.20;;
46731;SDS011;32477;51.474;5.696;2022-07-29T00:13:31;6.85;;;2.72;;
46731;SDS011;32477;51.474;5.696;2022-07-29T00:15:57;9.48;;;2.78;;
46731;SDS011;32477;51.474;5.696;2022-07-29T00:18:26;8.23;;;2.78;;
46731;SDS011;32477;51.474;5.696;2022-07-29T00:20:52;5.97;;;2.45;;
46731;SDS011;32477;51.474;5.696;2022-07-29T00:23:21;13.40;;;3.08;;
46731;SDS011;32477;51.474;5.696;2022-07-29T00:25:46;6.55;;;2.78;;
46731;SDS011;32477;51.474;5.696;2022-07-29T00:28:12;6.53;;;3.33;;
46731;SDS011;32477;51.474;5.696;2022-07-29T00:30:38;8.80;;;3.38;;
46731;SDS011;32477;51.474;5.696;2022-07-29T00:33:04;17.80;;;4.25;;
46731;SDS011;32477;51.474;5.696;2022-07-29T00:35:30;7.38;;;3.60;;
46731;SDS011;32477;51.474;5.696;2022-07-29T00:38:12;7.28;;;3.67;;
46731;SDS011;32477;51.474;5.696;2022-07-29T00:40:40;8.32;;;2.92;;
46731;SDS011;32477;51.474;5.696;2022-07-29T00:43:06;11.45;;;3.45;;
46731;SDS011;32477;51.474;5.696;2022-07-29T00:45:32;6.95;;;3.22;;
46731;SDS011;32477;51.474;5.696;2022-07-29T00:47:58;7.35;;;3.28;;
46731;SDS011;32477;51.474;5.696;2022-07-29T00:50:24;8.07;;;3.08;;
46731;SDS011;32477;51.474;5.696;2022-07-29T00:52:50;15.10;;;3.63;;
46731;SDS011;32477;51.474;5.696;2022-07-29T00:55:16;11.63;;;3.70;;
46731;SDS011;32477;51.474;5.696;2022-07-29T00:57:43;4.95;;;3.33;;
46731;SDS011;32477;51.474;5.696;2022-07-29T01:00:11;8.52;;;3.95;;
46731;SDS011;32477;51.474;5.696;2022-07-29T01:02:40;9.90;;;3.78;;
46731;SDS011;32477;51.474;5.696;2022-07-29T01:05:06;8.13;;;3.22;;
46731;SDS011;32477;51.474;5.696;2022-07-29T01:07:33;5.55;;;3.63;;
46731;SDS011;32477;51.474;5.696;2022-07-29T01:10:00;8.95;;;3.50;;
46731;SDS011;32477;51.474;5.696;2022-07-29T01:12:29;9.57;;;3.65;;
46731;SDS011;32477;51.474;5.696;2022-07-29T01:14:59;14.13;;;4.72;;
46731;SDS011;32477;51.474;5.696;2022-07-29T01:17:34;6.30;;;4.15;;
46731;SDS011;32477;51.474;5.696;2022-07-29T01:23:01;12.55;;;4.65;;
46731;SDS011;32477;51.474;5.696;2022-07-29T01:31:26;12.20;;;5.68;;
46731;SDS011;32477;51.474;5.696;2022-07-29T01:33:58;8.52;;;4.75;;
46731;SDS011;32477;51.474;5.696;2022-07-29T01:39:06;6.75;;;4.45;;
46731;SDS011;32477;51.474;5.696;2022-07-29T01:41:35;10.45;;;4.53;;
46731;SDS011;32477;51.474;5.696;2022-07-29T01:44:16;5.32;;;4.03;;
46731;SDS011;32477;51.474;5.696;2022-07-29T01:46:52;10.60;;;4.82;;
46731;SDS011;32477;51.474;5.696;2022-07-29T01:49:22;8.60;;;4.78;;
46731;SDS011;32477;51.474;5.696;2022-07-29T01:54:21;12.10;;;5.55;;
46731;SDS011;32477;51.474;5.696;2022-07-29T01:56:55;9.35;;;4.40;;
46731;SDS011;32477;51.474;5.696;2022-07-29T01:59:22;8.57;;;5.00;;
46731;SDS011;32477;51.474;5.696;2022-07-29T02:01:50;12.63;;;5.20;;
46731;SDS011;32477;51.474;5.696;2022-07-29T02:04:18;10.88;;;5.10;;
46731;SDS011;32477;51.474;5.696;2022-07-29T02:06:45;10.27;;;5.30;;
46731;SDS011;32477;51.474;5.696;2022-07-29T02:09:14;6.65;;;4.68;;
46731;SDS011;32477;51.474;5.696;2022-07-29T02:11:43;9.13;;;4.65;;
46731;SDS011;32477;51.474;5.696;2022-07-29T02:14:13;9.73;;;4.93;;
46731;SDS011;32477;51.474;5.696;2022-07-29T02:16:40;6.95;;;4.10;;
46731;SDS011;32477;51.474;5.696;2022-07-29T02:19:07;9.00;;;5.00;;
46731;SDS011;32477;51.474;5.696;2022-07-29T02:21:34;5.30;;;4.00;;
46731;SDS011;32477;51.474;5.696;2022-07-29T02:24:01;9.35;;;4.50;;
46731;SDS011;32477;51.474;5.696;2022-07-29T02:26:28;8.32;;;4.10;;
46731;SDS011;32477;51.474;5.696;2022-07-29T02:28:57;9.02;;;4.68;;
46731;SDS011;32477;51.474;5.696;2022-07-29T02:31:26;12.40;;;4.22;;
46731;SDS011;32477;51.474;5.696;2022-07-29T02:33:55;9.50;;;3.95;;
46731;SDS011;32477;51.474;5.696;2022-07-29T02:36:22;13.43;;;4.63;;
46731;SDS011;32477;51.474;5.696;2022-07-29T02:38:49;7.55;;;4.75;;
46731;SDS011;32477;51.474;5.696;2022-07-29T02:41:18;11.63;;;4.57;;
46731;SDS011;32477;51.474;5.696;2022-07-29T02:43:54;8.93;;;4.65;;
46731;SDS011;32477;51.474;5.696;2022-07-29T02:46:32;9.93;;;5.05;;
46731;SDS011;32477;51.474;5.696;2022-07-29T02:51:45;6.82;;;4.22;;
46731;SDS011;32477;51.474;5.696;2022-07-29T02:54:19;9.52;;;4.30;;
46731;SDS011;32477;51.474;5.696;2022-07-29T02:57:05;17.73;;;5.82;;
46731;SDS011;32477;51.474;5.696;2022-07-29T02:59:36;11.07;;;4.35;;
46731;SDS011;32477;51.474;5.696;2022-07-29T03:02:05;12.10;;;4.15;;
46731;SDS011;32477;51.474;5.696;2022-07-29T03:04:34;9.02;;;4.60;;
46731;SDS011;32477;51.474;5.696;2022-07-29T03:07:02;8.13;;;4.63;;
46731;SDS011;32477;51.474;5.696;2022-07-29T03:09:30;11.38;;;5.03;;
46731;SDS011;32477;51.474;5.696;2022-07-29T03:11:56;7.72;;;5.00;;
46731;SDS011;32477;51.474;5.696;2022-07-29T03:14:22;10.00;;;4.65;;
46731;SDS011;32477;51.474;5.696;2022-07-29T03:16:49;8.40;;;4.60;;
46731;SDS011;32477;51.474;5.696;2022-07-29T03:19:19;7.90;;;4.63;;
46731;SDS011;32477;51.474;5.696;2022-07-29T03:21:45;10.40;;;3.97;;
46731;SDS011;32477;51.474;5.696;2022-07-29T03:24:23;4.78;;;4.15;;
46731;SDS011;32477;51.474;5.696;2022-07-29T03:26:58;7.10;;;4.57;;
46731;SDS011;32477;51.474;5.696;2022-07-29T03:29:25;8.90;;;5.50;;
46731;SDS011;32477;51.474;5.696;2022-07-29T03:31:51;7.93;;;4.80;;
46731;SDS011;32477;51.474;5.696;2022-07-29T03:34:17;7.53;;;4.90;;
46731;SDS011;32477;51.474;5.696;2022-07-29T03:36:43;6.45;;;4.45;;
46731;SDS011;32477;51.474;5.696;2022-07-29T03:39:12;8.43;;;5.18;;
46731;SDS011;32477;51.474;5.696;2022-07-29T03:41:43;7.47;;;4.70;;
46731;SDS011;32477;51.474;5.696;2022-07-29T03:44:13;10.05;;;5.70;;
46731;SDS011;32477;51.474;5.696;2022-07-29T03:46:41;16.83;;;6.30;;
46731;SDS011;32477;51.474;5.696;2022-07-29T03:49:09;8.80;;;5.90;;
46731;SDS011;32477;51.474;5.696;2022-07-29T03:51:37;8.75;;;5.43;;
46731;SDS011;32477;51.474;5.696;2022-07-29T03:54:03;10.80;;;5.70;;
46731;SDS011;32477;51.474;5.696;2022-07-29T03:56:30;13.07;;;5.72;;
46731;SDS011;32477;51.474;5.696;2022-07-29T03:58:59;11.35;;;6.18;;
46731;SDS011;32477;51.474;5.696;2022-07-29T04:01:27;9.40;;;5.75;;
46731;SDS011;32477;51.474;5.696;2022-07-29T04:03:54;10.77;;;6.07;;
46731;SDS011;32477;51.474;5.696;2022-07-29T04:06:20;9.98;;;6.43;;
46731;SDS011;32477;51.474;5.696;2022-07-29T04:08:46;9.43;;;6.63;;
46731;SDS011;32477;51.474;5.696;2022-07-29T04:11:11;9.68;;;6.78;;
46731;SDS011;32477;51.474;5.696;2022-07-29T04:13:38;8.52;;;6.28;;
46731;SDS011;32477;51.474;5.696;2022-07-29T04:16:04;11.70;;;6.60;;
46731;SDS011;32477;51.474;5.696;2022-07-29T04:18:29;11.02;;;6.85;;
46731;SDS011;32477;51.474;5.696;2022-07-29T04:20:55;11.45;;;6.75;;
46731;SDS011;32477;51.474;5.696;2022-07-29T04:23:24;10.15;;;6.65;;
46731;SDS011;32477;51.474;5.696;2022-07-29T04:25:50;11.73;;;6.97;;
46731;SDS011;32477;51.474;5.696;2022-07-29T04:28:15;11.40;;;7.13;;
46731;SDS011;32477;51.474;5.696;2022-07-29T04:30:44;9.57;;;7.03;;
46731;SDS011;32477;51.474;5.696;2022-07-29T04:33:10;10.30;;;7.32;;
46731;SDS011;32477;51.474;5.696;2022-07-29T04:35:37;14.82;;;7.30;;
46731;SDS011;32477;51.474;5.696;2022-07-29T04:38:05;13.43;;;7.28;;
46731;SDS011;32477;51.474;5.696;2022-07-29T04:40:32;13.50;;;8.50;;
46731;SDS011;32477;51.474;5.696;2022-07-29T04:43:00;14.02;;;7.28;;
46731;SDS011;32477;51.474;5.696;2022-07-29T04:45:27;15.95;;;8.13;;
46731;SDS011;32477;51.474;5.696;2022-07-29T04:47:55;14.18;;;8.10;;
46731;SDS011;32477;51.474;5.696;2022-07-29T04:50:21;12.18;;;7.13;;
46731;SDS011;32477;51.474;5.696;2022-07-29T04:52:47;11.65;;;7.68;;
46731;SDS011;32477;51.474;5.696;2022-07-29T04:55:13;10.02;;;7.20;;
46731;SDS011;32477;51.474;5.696;2022-07-29T04:57:38;13.23;;;7.10;;
46731;SDS011;32477;51.474;5.696;2022-07-29T05:00:05;15.68;;;7.70;;
46731;SDS011;32477;51.474;5.696;2022-07-29T05:02:32;17.80;;;8.20;;
46731;SDS011;32477;51.474;5.696;2022-07-29T05:04:59;11.80;;;7.55;;
46731;SDS011;32477;51.474;5.696;2022-07-29T05:07:24;9.60;;;7.13;;
46731;SDS011;32477;51.474;5.696;2022-07-29T05:09:50;11.27;;;7.68;;
46731;SDS011;32477;51.474;5.696;2022-07-29T05:12:16;11.88;;;8.23;;
46731;SDS011;32477;51.474;5.696;2022-07-29T05:14:41;16.60;;;7.30;;
46731;SDS011;32477;51.474;5.696;2022-07-29T05:17:07;14.02;;;6.85;;
46731;SDS011;32477;51.474;5.696;2022-07-29T05:19:36;15.98;;;7.43;;
46731;SDS011;32477;51.474;5.696;2022-07-29T05:22:01;10.65;;;6.88;;
46731;SDS011;32477;51.474;5.696;2022-07-29T05:24:27;12.82;;;7.53;;
46731;SDS011;32477;51.474;5.696;2022-07-29T05:26:53;13.60;;;7.70;;
46731;SDS011;32477;51.474;5.696;2022-07-29T05:29:19;12.30;;;7.82;;
46731;SDS011;32477;51.474;5.696;2022-07-29T05:31:44;15.98;;;7.80;;
46731;SDS011;32477;51.474;5.696;2022-07-29T05:34:10;15.48;;;7.90;;
46731;SDS011;32477;51.474;5.696;2022-07-29T05:36:36;11.77;;;7.65;;
46731;SDS011;32477;51.474;5.696;2022-07-29T05:39:02;14.85;;;7.93;;
46731;SDS011;32477;51.474;5.696;2022-07-29T05:41:28;13.07;;;7.57;;
46731;SDS011;32477;51.474;5.696;2022-07-29T05:43:57;9.43;;;7.47;;
46731;SDS011;32477;51.474;5.696;2022-07-29T05:46:26;11.60;;;7.88;;
46731;SDS011;32477;51.474;5.696;2022-07-29T05:49:03;12.35;;;8.40;;
46731;SDS011;32477;51.474;5.696;2022-07-29T05:52:15;10.32;;;7.10;;
46731;SDS011;32477;51.474;5.696;2022-07-29T05:54:41;12.05;;;8.23;;
46731;SDS011;32477;51.474;5.696;2022-07-29T05:57:08;13.07;;;7.88;;
46731;SDS011;32477;51.474;5.696;2022-07-29T05:59:39;14.32;;;7.90;;
46731;SDS011;32477;51.474;5.696;2022-07-29T06:02:05;12.70;;;7.63;;
46731;SDS011;32477;51.474;5.696;2022-07-29T06:04:32;12.48;;;8.15;;
46731;SDS011;32477;51.474;5.696;2022-07-29T06:06:58;14.95;;;8.63;;
46731;SDS011;32477;51.474;5.696;2022-07-29T06:09:24;12.95;;;8.45;;
46731;SDS011;32477;51.474;5.696;2022-07-29T06:11:54;13.13;;;8.27;;
46731;SDS011;32477;51.474;5.696;2022-07-29T06:14:24;12.02;;;8.77;;
46731;SDS011;32477;51.474;5.696;2022-07-29T06:16:55;13.15;;;8.27;;
46731;SDS011;32477;51.474;5.696;2022-07-29T06:19:24;21.85;;;9.45;;
46731;SDS011;32477;51.474;5.696;2022-07-29T06:21:54;11.48;;;8.45;;
46731;SDS011;32477;51.474;5.696;2022-07-29T06:24:23;12.40;;;8.48;;
46731;SDS011;32477;51.474;5.696;2022-07-29T06:26:49;17.17;;;8.73;;
46731;SDS011;32477;51.474;5.696;2022-07-29T06:29:20;18.17;;;9.45;;
46731;SDS011;32477;51.474;5.696;2022-07-29T06:31:46;13.40;;;9.05;;
46731;SDS011;32477;51.474;5.696;2022-07-29T06:34:16;15.88;;;9.27;;
46731;SDS011;32477;51.474;5.696;2022-07-29T06:36:42;12.85;;;8.65;;
46731;SDS011;32477;51.474;5.696;2022-07-29T06:39:14;18.45;;;9.55;;
46731;SDS011;32477;51.474;5.696;2022-07-29T06:41:45;16.25;;;9.02;;
46731;SDS011;32477;51.474;5.696;2022-07-29T06:44:16;14.77;;;7.80;;
46731;SDS011;32477;51.474;5.696;2022-07-29T06:46:45;13.98;;;8.57;;
46731;SDS011;32477;51.474;5.696;2022-07-29T06:49:14;13.35;;;8.63;;
46731;SDS011;32477;51.474;5.696;2022-07-29T06:51:39;13.25;;;8.05;;
46731;SDS011;32477;51.474;5.696;2022-07-29T06:54:08;12.85;;;8.10;;
46731;SDS011;32477;51.474;5.696;2022-07-29T06:56:34;10.95;;;7.57;;
46731;SDS011;32477;51.474;5.696;2022-07-29T06:59:06;10.32;;;7.32;;
46731;SDS011;32477;51.474;5.696;2022-07-29T07:01:41;10.00;;;6.97;;
46731;SDS011;32477;51.474;5.696;2022-07-29T07:04:08;13.40;;;8.10;;
46731;SDS011;32477;51.474;5.696;2022-07-29T07:06:41;13.48;;;8.32;;
46731;SDS011;32477;51.474;5.696;2022-07-29T07:09:33;12.10;;;8.25;;
46731;SDS011;32477;51.474;5.696;2022-07-29T07:12:02;10.57;;;7.82;;
46731;SDS011;32477;51.474;5.696;2022-07-29T07:14:33;11.05;;;7.20;;
46731;SDS011;32477;51.474;5.696;2022-07-29T07:17:00;19.13;;;7.95;;
46731;SDS011;32477;51.474;5.696;2022-07-29T07:19:50;12.95;;;7.07;;
46731;SDS011;32477;51.474;5.696;2022-07-29T07:22:18;11.20;;;7.18;;
46731;SDS011;32477;51.474;5.696;2022-07-29T07:24:44;12.07;;;7.93;;
46731;SDS011;32477;51.474;5.696;2022-07-29T07:27:10;10.80;;;6.82;;
46731;SDS011;32477;51.474;5.696;2022-07-29T07:29:36;9.93;;;6.57;;
46731;SDS011;32477;51.474;5.696;2022-07-29T07:32:05;18.13;;;6.50;;
46731;SDS011;32477;51.474;5.696;2022-07-29T07:34:38;8.20;;;5.72;;
46731;SDS011;32477;51.474;5.696;2022-07-29T07:37:04;13.68;;;6.05;;
46731;SDS011;32477;51.474;5.696;2022-07-29T07:39:30;12.82;;;6.28;;
46731;SDS011;32477;51.474;5.696;2022-07-29T07:41:56;8.38;;;5.68;;
46731;SDS011;32477;51.474;5.696;2022-07-29T07:44:22;13.95;;;6.15;;
46731;SDS011;32477;51.474;5.696;2022-07-29T07:46:49;11.05;;;5.57;;
46731;SDS011;32477;51.474;5.696;2022-07-29T07:49:15;10.23;;;5.85;;
46731;SDS011;32477;51.474;5.696;2022-07-29T07:51:45;11.07;;;6.30;;
46731;SDS011;32477;51.474;5.696;2022-07-29T07:54:11;10.80;;;6.32;;
46731;SDS011;32477;51.474;5.696;2022-07-29T07:56:36;15.35;;;6.85;;
46731;SDS011;32477;51.474;5.696;2022-07-29T07:59:03;104.40;;;13.30;;
46731;SDS011;32477;51.474;5.696;2022-07-29T08:01:30;145.48;;;14.65;;
46731;SDS011;32477;51.474;5.696;2022-07-29T08:03:57;66.68;;;9.35;;
46731;SDS011;32477;51.474;5.696;2022-07-29T08:06:24;10.07;;;4.93;;
46731;SDS011;32477;51.474;5.696;2022-07-29T08:08:50;10.73;;;5.90;;
46731;SDS011;32477;51.474;5.696;2022-07-29T08:11:16;17.73;;;7.38;;
46731;SDS011;32477;51.474;5.696;2022-07-29T08:13:42;10.57;;;6.30;;
46731;SDS011;32477;51.474;5.696;2022-07-29T08:16:08;9.27;;;5.63;;
46731;SDS011;32477;51.474;5.696;2022-07-29T08:18:38;6.45;;;4.72;;
46731;SDS011;32477;51.474;5.696;2022-07-29T08:21:06;9.18;;;5.35;;
46731;SDS011;32477;51.474;5.696;2022-07-29T08:23:32;8.88;;;5.22;;
46731;SDS011;32477;51.474;5.696;2022-07-29T08:26:05;10.23;;;6.03;;
46731;SDS011;32477;51.474;5.696;2022-07-29T08:28:36;9.18;;;4.32;;
46731;SDS011;32477;51.474;5.696;2022-07-29T08:31:04;9.98;;;5.35;;
46731;SDS011;32477;51.474;5.696;2022-07-29T08:33:30;6.97;;;4.30;;
46731;SDS011;32477;51.474;5.696;2022-07-29T08:35:58;7.43;;;4.63;;
46731;SDS011;32477;51.474;5.696;2022-07-29T08:38:24;11.52;;;4.63;;
46731;SDS011;32477;51.474;5.696;2022-07-29T08:40:51;9.02;;;4.85;;
46731;SDS011;32477;51.474;5.696;2022-07-29T08:43:17;7.72;;;4.78;;
46731;SDS011;32477;51.474;5.696;2022-07-29T08:45:45;7.15;;;4.72;;
46731;SDS011;32477;51.474;5.696;2022-07-29T08:48:16;6.15;;;4.75;;
46731;SDS011;32477;51.474;5.696;2022-07-29T08:50:44;5.85;;;4.75;;
46731;SDS011;32477;51.474;5.696;2022-07-29T08:53:10;12.02;;;5.03;;
46731;SDS011;32477;51.474;5.696;2022-07-29T08:55:47;10.45;;;7.30;;
46731;SDS011;32477;51.474;5.696;2022-07-29T08:58:19;7.57;;;4.60;;
46731;SDS011;32477;51.474;5.696;2022-07-29T09:00:51;6.75;;;5.20;;
46731;SDS011;32477;51.474;5.696;2022-07-29T09:03:19;6.93;;;4.63;;
46731;SDS011;32477;51.474;5.696;2022-07-29T09:05:50;6.75;;;4.50;;
46731;SDS011;32477;51.474;5.696;2022-07-29T09:08:17;8.90;;;4.50;;
46731;SDS011;32477;51.474;5.696;2022-07-29T09:10:45;7.18;;;4.43;;
46731;SDS011;32477;51.474;5.696;2022-07-29T09:13:11;8.60;;;4.82;;
46731;SDS011;32477;51.474;5.696;2022-07-29T09:15:37;5.93;;;4.38;;
46731;SDS011;32477;51.474;5.696;2022-07-29T09:18:10;5.90;;;4.00;;
46731;SDS011;32477;51.474;5.696;2022-07-29T09:21:03;7.40;;;4.10;;
46731;SDS011;32477;51.474;5.696;2022-07-29T09:24:05;4.85;;;4.30;;
46731;SDS011;32477;51.474;5.696;2022-07-29T09:26:41;7.47;;;3.67;;
46731;SDS011;32477;51.474;5.696;2022-07-29T09:29:12;6.88;;;3.30;;
46731;SDS011;32477;51.474;5.696;2022-07-29T09:34:41;8.07;;;4.90;;
46731;SDS011;32477;51.474;5.696;2022-07-29T09:37:08;7.05;;;4.38;;
46731;SDS011;32477;51.474;5.696;2022-07-29T09:39:43;10.57;;;5.03;;
46731;SDS011;32477;51.474;5.696;2022-07-29T09:42:27;7.57;;;4.78;;
46731;SDS011;32477;51.474;5.696;2022-07-29T09:44:54;7.38;;;4.43;;
46731;SDS011;32477;51.474;5.696;2022-07-29T09:47:27;9.82;;;4.40;;
46731;SDS011;32477;51.474;5.696;2022-07-29T09:52:45;6.07;;;3.95;;
46731;SDS011;32477;51.474;5.696;2022-07-29T09:55:16;8.23;;;3.53;;
46731;SDS011;32477;51.474;5.696;2022-07-29T09:57:43;8.45;;;4.00;;
46731;SDS011;32477;51.474;5.696;2022-07-29T10:00:14;5.22;;;3.80;;
46731;SDS011;32477;51.474;5.696;2022-07-29T10:02:43;6.32;;;4.32;;
46731;SDS011;32477;51.474;5.696;2022-07-29T10:07:54;16.58;;;5.38;;
46731;SDS011;32477;51.474;5.696;2022-07-29T10:10:41;10.75;;;4.30;;
46731;SDS011;32477;51.474;5.696;2022-07-29T10:13:10;9.45;;;4.90;;
46731;SDS011;32477;51.474;5.696;2022-07-29T10:16:17;9.98;;;5.63;;
46731;SDS011;32477;51.474;5.696;2022-07-29T10:18:58;8.68;;;4.93;;
46731;SDS011;32477;51.474;5.696;2022-07-29T10:21:35;8.00;;;4.88;;
46731;SDS011;32477;51.474;5.696;2022-07-29T10:24:09;8.43;;;4.32;;
46731;SDS011;32477;51.474;5.696;2022-07-29T10:26:49;10.30;;;4.60;;
46731;SDS011;32477;51.474;5.696;2022-07-29T10:29:16;9.20;;;4.28;;
46731;SDS011;32477;51.474;5.696;2022-07-29T10:31:44;6.88;;;4.78;;
46731;SDS011;32477;51.474;5.696;2022-07-29T10:34:27;5.60;;;4.40;;
46731;SDS011;32477;51.474;5.696;2022-07-29T10:43:04;5.78;;;4.15;;
46731;SDS011;32477;51.474;5.696;2022-07-29T10:45:49;8.52;;;4.07;;
46731;SDS011;32477;51.474;5.696;2022-07-29T10:48:21;7.32;;;4.03;;
46731;SDS011;32477;51.474;5.696;2022-07-29T10:50:54;6.63;;;3.65;;
46731;SDS011;32477;51.474;5.696;2022-07-29T10:53:45;5.78;;;3.72;;
46731;SDS011;32477;51.474;5.696;2022-07-29T11:01:53;5.75;;;2.85;;
46731;SDS011;32477;51.474;5.696;2022-07-29T11:07:12;5.68;;;3.03;;
46731;SDS011;32477;51.474;5.696;2022-07-29T11:09:39;7.28;;;3.60;;
46731;SDS011;32477;51.474;5.696;2022-07-29T11:12:45;11.88;;;4.22;;
46731;SDS011;32477;51.474;5.696;2022-07-29T11:15:09;5.57;;;2.97;;
46731;SDS011;32477;51.474;5.696;2022-07-29T11:28:56;4.82;;;2.72;;
46731;SDS011;32477;51.474;5.696;2022-07-29T11:31:31;6.55;;;2.42;;
46731;SDS011;32477;51.474;5.696;2022-07-29T11:39:35;5.35;;;3.22;;
46731;SDS011;32477;51.474;5.696;2022-07-29T11:48:57;9.93;;;3.67;;
46731;SDS011;32477;51.474;5.696;2022-07-29T12:08:46;5.93;;;2.17;;
46731;SDS011;32477;51.474;5.696;2022-07-29T12:11:33;8.40;;;2.67;;
46731;SDS011;32477;51.474;5.696;2022-07-29T12:14:04;4.88;;;3.08;;
46731;SDS011;32477;51.474;5.696;2022-07-29T12:16:36;8.00;;;3.38;;
46731;SDS011;32477;51.474;5.696;2022-07-29T12:23:31;6.78;;;3.22;;
46731;SDS011;32477;51.474;5.696;2022-07-29T12:33:55;7.25;;;3.88;;
46731;SDS011;32477;51.474;5.696;2022-07-29T12:36:46;7.70;;;3.90;;
46731;SDS011;32477;51.474;5.696;2022-07-29T12:53:41;7.15;;;3.20;;
46731;SDS011;32477;51.474;5.696;2022-07-29T12:56:26;7.38;;;3.60;;
46731;SDS011;32477;51.474;5.696;2022-07-29T12:58:51;9.75;;;3.60;;
46731;SDS011;32477;51.474;5.696;2022-07-29T13:01:17;6.18;;;3.53;;
46731;SDS011;32477;51.474;5.696;2022-07-29T13:03:49;6.10;;;3.65;;
46731;SDS011;32477;51.474;5.696;2022-07-29T13:06:36;8.98;;;4.28;;
46731;SDS011;32477;51.474;5.696;2022-07-29T13:09:20;5.75;;;3.92;;
46731;SDS011;32477;51.474;5.696;2022-07-29T13:15:47;14.30;;;4.20;;
46731;SDS011;32477;51.474;5.696;2022-07-29T13:18:33;6.32;;;3.08;;
46731;SDS011;32477;51.474;5.696;2022-07-29T13:21:11;6.35;;;3.38;;
46731;SDS011;32477;51.474;5.696;2022-07-29T13:23:38;8.80;;;2.78;;
46731;SDS011;32477;51.474;5.696;2022-07-29T13:26:10;5.38;;;3.00;;
46731;SDS011;32477;51.474;5.696;2022-07-29T13:28:37;5.40;;;2.88;;
46731;SDS011;32477;51.474;5.696;2022-07-29T13:31:03;8.98;;;2.80;;
46731;SDS011;32477;51.474;5.696;2022-07-29T13:33:30;9.75;;;2.33;;
46731;SDS011;32477;51.474;5.696;2022-07-29T13:35:56;5.88;;;2.78;;
46731;SDS011;32477;51.474;5.696;2022-07-29T13:38:21;7.40;;;2.90;;
46731;SDS011;32477;51.474;5.696;2022-07-29T13:40:47;8.32;;;2.60;;
46731;SDS011;32477;51.474;5.696;2022-07-29T13:43:13;6.88;;;2.65;;
46731;SDS011;32477;51.474;5.696;2022-07-29T13:45:39;10.10;;;2.92;;
46731;SDS011;32477;51.474;5.696;2022-07-29T13:48:05;6.20;;;3.00;;
46731;SDS011;32477;51.474;5.696;2022-07-29T13:50:31;8.45;;;3.58;;
46731;SDS011;32477;51.474;5.696;2022-07-29T13:52:57;10.38;;;3.97;;
46731;SDS011;32477;51.474;5.696;2022-07-29T13:55:22;8.93;;;3.97;;
46731;SDS011;32477;51.474;5.696;2022-07-29T13:57:48;6.60;;;4.05;;
46731;SDS011;32477;51.474;5.696;2022-07-29T14:00:14;6.93;;;3.70;;
46731;SDS011;32477;51.474;5.696;2022-07-29T14:02:41;7.90;;;2.97;;
46731;SDS011;32477;51.474;5.696;2022-07-29T14:05:07;5.28;;;2.92;;
46731;SDS011;32477;51.474;5.696;2022-07-29T14:07:35;8.70;;;3.47;;
46731;SDS011;32477;51.474;5.696;2022-07-29T14:10:04;8.70;;;3.63;;
46731;SDS011;32477;51.474;5.696;2022-07-29T14:12:30;7.43;;;4.07;;
46731;SDS011;32477;51.474;5.696;2022-07-29T14:14:56;7.63;;;3.60;;
46731;SDS011;32477;51.474;5.696;2022-07-29T14:17:23;5.43;;;3.47;;
46731;SDS011;32477;51.474;5.696;2022-07-29T14:19:49;7.38;;;3.35;;
46731;SDS011;32477;51.474;5.696;2022-07-29T14:22:14;11.80;;;3.50;;
46731;SDS011;32477;51.474;5.696;2022-07-29T14:24:43;7.78;;;3.70;;
46731;SDS011;32477;51.474;5.696;2022-07-29T14:27:09;7.40;;;4.22;;
46731;SDS011;32477;51.474;5.696;2022-07-29T14:29:35;6.50;;;3.40;;
46731;SDS011;32477;51.474;5.696;2022-07-29T14:32:02;9.82;;;3.17;;
46731;SDS011;32477;51.474;5.696;2022-07-29T14:34:34;8.45;;;3.05;;
46731;SDS011;32477;51.474;5.696;2022-07-29T14:37:01;9.52;;;3.08;;
46731;SDS011;32477;51.474;5.696;2022-07-29T14:39:27;6.68;;;3.45;;
46731;SDS011;32477;51.474;5.696;2022-07-29T14:41:54;10.27;;;2.88;;
46731;SDS011;32477;51.474;5.696;2022-07-29T14:44:19;5.45;;;2.45;;
46731;SDS011;32477;51.474;5.696;2022-07-29T14:46:45;5.35;;;2.70;;
46731;SDS011;32477;51.474;5.696;2022-07-29T14:49:11;6.95;;;2.58;;
46731;SDS011;32477;51.474;5.696;2022-07-29T14:51:36;5.63;;;2.42;;
46731;SDS011;32477;51.474;5.696;2022-07-29T14:54:02;17.48;;;5.10;;
46731;SDS011;32477;51.474;5.696;2022-07-29T14:56:28;8.57;;;2.90;;
46731;SDS011;32477;51.474;5.696;2022-07-29T14:58:55;4.05;;;2.95;;
46731;SDS011;32477;51.474;5.696;2022-07-29T15:01:22;8.80;;;3.13;;
46731;SDS011;32477;51.474;5.696;2022-07-29T15:03:48;6.63;;;3.08;;
46731;SDS011;32477;51.474;5.696;2022-07-29T15:06:13;5.85;;;2.70;;
46731;SDS011;32477;51.474;5.696;2022-07-29T15:08:39;5.25;;;2.65;;
46731;SDS011;32477;51.474;5.696;2022-07-29T15:11:05;5.88;;;2.65;;
46731;SDS011;32477;51.474;5.696;2022-07-29T15:13:30;11.25;;;2.60;;
46731;SDS011;32477;51.474;5.696;2022-07-29T15:15:57;5.75;;;2.63;;
46731;SDS011;32477;51.474;5.696;2022-07-29T15:18:23;6.32;;;3.50;;
46731;SDS011;32477;51.474;5.696;2022-07-29T15:20:48;15.15;;;3.20;;
46731;SDS011;32477;51.474;5.696;2022-07-29T15:23:14;6.05;;;2.70;;
46731;SDS011;32477;51.474;5.696;2022-07-29T15:25:40;6.25;;;3.10;;
46731;SDS011;32477;51.474;5.696;2022-07-29T15:28:05;4.82;;;2.42;;
46731;SDS011;32477;51.474;5.696;2022-07-29T15:30:32;6.15;;;2.63;;
46731;SDS011;32477;51.474;5.696;2022-07-29T15:33:00;5.50;;;3.35;;
46731;SDS011;32477;51.474;5.696;2022-07-29T15:35:26;5.60;;;2.88;;
46731;SDS011;32477;51.474;5.696;2022-07-29T15:37:52;5.00;;;3.00;;
46731;SDS011;32477;51.474;5.696;2022-07-29T15:40:17;9.02;;;2.90;;
46731;SDS011;32477;51.474;5.696;2022-07-29T15:42:43;9.77;;;3.00;;
46731;SDS011;32477;51.474;5.696;2022-07-29T15:45:09;11.88;;;2.88;;
46731;SDS011;32477;51.474;5.696;2022-07-29T15:47:35;7.00;;;2.75;;
46731;SDS011;32477;51.474;5.696;2022-07-29T15:50:00;10.65;;;2.92;;
46731;SDS011;32477;51.474;5.696;2022-07-29T15:52:27;8.45;;;2.97;;
46731;SDS011;32477;51.474;5.696;2022-07-29T15:54:54;6.63;;;2.20;;
46731;SDS011;32477;51.474;5.696;2022-07-29T15:57:20;7.82;;;2.72;;
46731;SDS011;32477;51.474;5.696;2022-07-29T15:59:45;4.65;;;2.30;;
46731;SDS011;32477;51.474;5.696;2022-07-29T16:02:11;9.35;;;2.42;;
46731;SDS011;32477;51.474;5.696;2022-07-29T16:04:36;4.40;;;2.28;;
46731;SDS011;32477;51.474;5.696;2022-07-29T16:07:02;5.82;;;2.85;;
46731;SDS011;32477;51.474;5.696;2022-07-29T16:09:28;6.85;;;2.30;;
46731;SDS011;32477;51.474;5.696;2022-07-29T16:11:53;4.80;;;2.75;;
46731;SDS011;32477;51.474;5.696;2022-07-29T16:14:20;5.55;;;1.95;;
46731;SDS011;32477;51.474;5.696;2022-07-29T16:16:46;11.85;;;2.58;;
46731;SDS011;32477;51.474;5.696;2022-07-29T16:19:13;4.75;;;1.92;;
46731;SDS011;32477;51.474;5.696;2022-07-29T16:21:39;5.15;;;2.35;;
46731;SDS011;32477;51.474;5.696;2022-07-29T16:24:05;3.33;;;2.40;;
46731;SDS011;32477;51.474;5.696;2022-07-29T16:26:31;5.55;;;2.28;;
46731;SDS011;32477;51.474;5.696;2022-07-29T16:28:58;8.60;;;2.47;;
46731;SDS011;32477;51.474;5.696;2022-07-29T16:31:23;2.90;;;2.10;;
46731;SDS011;32477;51.474;5.696;2022-07-29T16:33:50;3.42;;;2.13;;
46731;SDS011;32477;51.474;5.696;2022-07-29T16:36:16;4.90;;;2.33;;
46731;SDS011;32477;51.474;5.696;2022-07-29T16:38:42;10.32;;;2.60;;
46731;SDS011;32477;51.474;5.696;2022-07-29T16:41:09;5.85;;;1.90;;
46731;SDS011;32477;51.474;5.696;2022-07-29T16:43:34;5.22;;;2.33;;
46731;SDS011;32477;51.474;5.696;2022-07-29T16:46:00;4.28;;;2.53;;